Hlavní strana
METAR-TAF:

METAR-TAF

Letiště :

Aiken, Jižní Karolína, Spojené státy americké

zeměpisná šířka: 33-38-58N, zeměpisná délka: 081-41-06W, výška: 161 m

Aktuální stav počasí

Zpráva byla vytvořena před 23 minutami, v 23:55 UTC
Západojihozápadní vítr 12 kt
Teplota 7°C
Vlhkost vzduchu 70%
Tlak 1009 hPa
Viditelnost: 16.1 km
Oblačno až skoro zataženo ve výšce 3700 ft
Zataženo ve výšce 4700 ft

METAR: KAIK 302355Z AUTO 25012KT 10SM BKN037 OVC047 07/02 A2979 RMK AO2 T00730021 10123 20071 401870071

Čas: 19:18 (00:18 UTC)


TAF: chybějící

Stav a předpovědi počasí z více než 4 000 letišť (zprávy METAR a TAF).

Červené a žluté tečky na mapě představují dostupné meteorologické stanice.

Když kurzor umístíte na tečku, zobrazí se název stanice.

Pak kliknutím zobrazíte stav a předpověď počasí.

Chcete-li změnit mapu, kliknutím na zelené tlačítko se znaménkem +mapu přiblížíte, kliknutím na zelené tlačítko se znaménkem – mapu oddálíte a kliknutím na zelené šipky přejdete na sousední mapy.


METAR-TAF: